Terminal Aerodrome Forecast
Issued by NWS

Home | Current Version | Previous Version | Text Only | Print | Product List | Glossary On
Versions: 1 2 3 4 5 6 7 8 9 10 11 12 13 14 15 16 17 18 19
000
FTUS46 KLOX 012353
TAFSBP
TAF
KSBP 012353Z 0200/0224 31015KT P6SM SKC
     FM020300 31008KT P6SM SKC
     FM020500 31006KT 6SM BR BKN007
     FM020800 31005KT 4SM BR OVC004
     FM021030 VRB03KT 3/4SM BR OVC002
     FM021530 VRB04KT 5SM BR BKN007
     FM021700 31006KT P6SM FEW010 SCT250
     FM022000 31015KT P6SM SCT250=

USA.gov is the U.S. government's official web portal to all federal, state and local government web resources and services.